sensor_id;sensor_type;location;lat;lon;timestamp;temperature;humidity
20125;DHT22;10223;50.862;4.360;2023-07-22T00:00:24;18.30;99.90
20125;DHT22;10223;50.862;4.360;2023-07-22T00:02:52;18.10;99.90
20125;DHT22;10223;50.862;4.360;2023-07-22T00:05:20;17.80;99.90
20125;DHT22;10223;50.862;4.360;2023-07-22T00:07:49;17.60;99.90
20125;DHT22;10223;50.862;4.360;2023-07-22T00:10:16;17.50;99.90
20125;DHT22;10223;50.862;4.360;2023-07-22T00:12:43;17.40;99.90
20125;DHT22;10223;50.862;4.360;2023-07-22T00:15:10;17.50;99.90
20125;DHT22;10223;50.862;4.360;2023-07-22T00:17:37;17.40;99.90
20125;DHT22;10223;50.862;4.360;2023-07-22T00:20:08;17.30;99.90
20125;DHT22;10223;50.862;4.360;2023-07-22T00:22:36;17.40;99.90
20125;DHT22;10223;50.862;4.360;2023-07-22T00:25:06;17.30;99.90
20125;DHT22;10223;50.862;4.360;2023-07-22T00:27:35;17.30;99.90
20125;DHT22;10223;50.862;4.360;2023-07-22T00:30:03;17.10;99.90
20125;DHT22;10223;50.862;4.360;2023-07-22T00:32:30;17.10;99.90
20125;DHT22;10223;50.862;4.360;2023-07-22T00:34:57;16.90;99.90
20125;DHT22;10223;50.862;4.360;2023-07-22T00:37:25;16.90;99.90
20125;DHT22;10223;50.862;4.360;2023-07-22T00:39:52;16.90;99.90
20125;DHT22;10223;50.862;4.360;2023-07-22T00:42:20;16.90;99.90
20125;DHT22;10223;50.862;4.360;2023-07-22T00:44:47;16.80;99.90
20125;DHT22;10223;50.862;4.360;2023-07-22T00:47:14;16.80;99.90
20125;DHT22;10223;50.862;4.360;2023-07-22T00:49:42;16.80;99.90
20125;DHT22;10223;50.862;4.360;2023-07-22T00:52:09;16.60;99.90
20125;DHT22;10223;50.862;4.360;2023-07-22T00:54:37;16.50;99.90
20125;DHT22;10223;50.862;4.360;2023-07-22T00:57:04;16.50;99.90
20125;DHT22;10223;50.862;4.360;2023-07-22T00:59:33;16.60;99.90
20125;DHT22;10223;50.862;4.360;2023-07-22T01:02:00;16.60;99.90
20125;DHT22;10223;50.862;4.360;2023-07-22T01:04:27;16.50;99.90
20125;DHT22;10223;50.862;4.360;2023-07-22T01:06:54;16.30;99.90
20125;DHT22;10223;50.862;4.360;2023-07-22T01:09:22;16.30;99.90
20125;DHT22;10223;50.862;4.360;2023-07-22T01:11:50;16.30;99.90
20125;DHT22;10223;50.862;4.360;2023-07-22T01:14:16;16.10;99.90
20125;DHT22;10223;50.862;4.360;2023-07-22T01:16:43;16.10;99.90
20125;DHT22;10223;50.862;4.360;2023-07-22T01:19:11;16.10;99.90
20125;DHT22;10223;50.862;4.360;2023-07-22T01:21:42;16.20;99.90
20125;DHT22;10223;50.862;4.360;2023-07-22T01:24:11;16.20;99.90
20125;DHT22;10223;50.862;4.360;2023-07-22T01:26:38;16.30;99.90
20125;DHT22;10223;50.862;4.360;2023-07-22T01:29:05;16.20;99.90
20125;DHT22;10223;50.862;4.360;2023-07-22T01:31:34;16.10;99.90
20125;DHT22;10223;50.862;4.360;2023-07-22T01:34:01;16.10;99.90
20125;DHT22;10223;50.862;4.360;2023-07-22T01:36:29;16.00;99.90
20125;DHT22;10223;50.862;4.360;2023-07-22T01:38:56;16.00;99.90
20125;DHT22;10223;50.862;4.360;2023-07-22T01:41:24;15.90;99.90
20125;DHT22;10223;50.862;4.360;2023-07-22T01:43:51;15.90;99.90
20125;DHT22;10223;50.862;4.360;2023-07-22T01:46:18;15.80;99.90
20125;DHT22;10223;50.862;4.360;2023-07-22T01:48:45;15.70;99.90
20125;DHT22;10223;50.862;4.360;2023-07-22T01:51:12;15.70;99.90
20125;DHT22;10223;50.862;4.360;2023-07-22T01:53:39;15.70;99.90
20125;DHT22;10223;50.862;4.360;2023-07-22T01:56:06;15.70;99.90
20125;DHT22;10223;50.862;4.360;2023-07-22T01:58:34;15.70;99.90
20125;DHT22;10223;50.862;4.360;2023-07-22T02:01:00;15.80;99.90
20125;DHT22;10223;50.862;4.360;2023-07-22T02:03:28;15.70;99.90
20125;DHT22;10223;50.862;4.360;2023-07-22T02:06:01;15.60;99.90
20125;DHT22;10223;50.862;4.360;2023-07-22T02:08:28;15.60;99.90
20125;DHT22;10223;50.862;4.360;2023-07-22T02:10:55;15.40;99.90
20125;DHT22;10223;50.862;4.360;2023-07-22T02:13:25;15.30;99.90
20125;DHT22;10223;50.862;4.360;2023-07-22T02:15:55;15.30;99.90
20125;DHT22;10223;50.862;4.360;2023-07-22T02:18:22;15.40;99.90
20125;DHT22;10223;50.862;4.360;2023-07-22T02:20:48;15.50;99.90
20125;DHT22;10223;50.862;4.360;2023-07-22T02:23:15;15.60;99.90
20125;DHT22;10223;50.862;4.360;2023-07-22T02:25:43;15.40;99.90
20125;DHT22;10223;50.862;4.360;2023-07-22T02:28:10;15.40;99.90
20125;DHT22;10223;50.862;4.360;2023-07-22T02:30:37;15.40;99.90
20125;DHT22;10223;50.862;4.360;2023-07-22T02:33:05;15.40;99.90
20125;DHT22;10223;50.862;4.360;2023-07-22T02:35:32;15.40;99.90
20125;DHT22;10223;50.862;4.360;2023-07-22T02:37:59;15.40;99.90
20125;DHT22;10223;50.862;4.360;2023-07-22T02:40:27;15.30;99.90
20125;DHT22;10223;50.862;4.360;2023-07-22T02:42:54;15.30;99.90
20125;DHT22;10223;50.862;4.360;2023-07-22T02:45:20;15.30;99.90
20125;DHT22;10223;50.862;4.360;2023-07-22T02:47:47;15.20;99.90
20125;DHT22;10223;50.862;4.360;2023-07-22T02:50:16;15.10;99.90
20125;DHT22;10223;50.862;4.360;2023-07-22T02:52:43;15.10;99.90
20125;DHT22;10223;50.862;4.360;2023-07-22T02:55:13;15.10;99.90
20125;DHT22;10223;50.862;4.360;2023-07-22T02:57:41;15.10;99.90
20125;DHT22;10223;50.862;4.360;2023-07-22T03:00:09;14.90;99.90
20125;DHT22;10223;50.862;4.360;2023-07-22T03:02:38;15.00;99.90
20125;DHT22;10223;50.862;4.360;2023-07-22T03:05:06;14.90;99.90
20125;DHT22;10223;50.862;4.360;2023-07-22T03:07:35;14.90;99.90
20125;DHT22;10223;50.862;4.360;2023-07-22T03:10:03;14.90;99.90
20125;DHT22;10223;50.862;4.360;2023-07-22T03:12:30;14.80;99.90
20125;DHT22;10223;50.862;4.360;2023-07-22T03:14:56;14.80;99.90
20125;DHT22;10223;50.862;4.360;2023-07-22T03:17:23;14.90;99.90
20125;DHT22;10223;50.862;4.360;2023-07-22T03:19:50;14.80;99.90
20125;DHT22;10223;50.862;4.360;2023-07-22T03:22:17;14.90;99.90
20125;DHT22;10223;50.862;4.360;2023-07-22T03:24:46;14.80;99.90
20125;DHT22;10223;50.862;4.360;2023-07-22T03:27:14;14.90;99.90
20125;DHT22;10223;50.862;4.360;2023-07-22T03:29:42;14.70;99.90
20125;DHT22;10223;50.862;4.360;2023-07-22T03:32:09;14.60;99.90
20125;DHT22;10223;50.862;4.360;2023-07-22T03:34:36;14.60;99.90
20125;DHT22;10223;50.862;4.360;2023-07-22T03:37:03;14.70;99.90
20125;DHT22;10223;50.862;4.360;2023-07-22T03:39:30;14.70;99.90
20125;DHT22;10223;50.862;4.360;2023-07-22T03:41:58;14.80;99.90
20125;DHT22;10223;50.862;4.360;2023-07-22T03:44:24;14.90;99.90
20125;DHT22;10223;50.862;4.360;2023-07-22T03:46:54;14.90;99.90
20125;DHT22;10223;50.862;4.360;2023-07-22T03:49:21;14.90;99.90
20125;DHT22;10223;50.862;4.360;2023-07-22T03:51:47;14.90;99.90
20125;DHT22;10223;50.862;4.360;2023-07-22T03:54:14;14.90;99.90
20125;DHT22;10223;50.862;4.360;2023-07-22T03:56:41;14.80;99.90
20125;DHT22;10223;50.862;4.360;2023-07-22T03:59:09;14.70;99.90
20125;DHT22;10223;50.862;4.360;2023-07-22T04:01:36;14.70;99.90
20125;DHT22;10223;50.862;4.360;2023-07-22T04:04:03;14.80;99.90
20125;DHT22;10223;50.862;4.360;2023-07-22T04:06:30;14.80;99.90
20125;DHT22;10223;50.862;4.360;2023-07-22T04:08:57;14.60;99.90
20125;DHT22;10223;50.862;4.360;2023-07-22T04:11:25;14.60;99.90
20125;DHT22;10223;50.862;4.360;2023-07-22T04:13:52;14.70;99.90
20125;DHT22;10223;50.862;4.360;2023-07-22T04:16:21;14.60;99.90
20125;DHT22;10223;50.862;4.360;2023-07-22T04:18:47;14.60;99.90
20125;DHT22;10223;50.862;4.360;2023-07-22T04:21:14;14.70;99.90
20125;DHT22;10223;50.862;4.360;2023-07-22T04:23:41;14.60;99.90
20125;DHT22;10223;50.862;4.360;2023-07-22T04:26:09;14.60;99.90
20125;DHT22;10223;50.862;4.360;2023-07-22T04:28:36;14.50;99.90
20125;DHT22;10223;50.862;4.360;2023-07-22T04:31:03;14.50;99.90
20125;DHT22;10223;50.862;4.360;2023-07-22T04:33:31;14.50;99.90
20125;DHT22;10223;50.862;4.360;2023-07-22T04:35:59;14.60;99.90
20125;DHT22;10223;50.862;4.360;2023-07-22T04:38:26;14.70;99.90
20125;DHT22;10223;50.862;4.360;2023-07-22T04:40:53;14.70;99.90
20125;DHT22;10223;50.862;4.360;2023-07-22T04:43:20;14.80;99.90
20125;DHT22;10223;50.862;4.360;2023-07-22T04:45:47;14.60;99.90
20125;DHT22;10223;50.862;4.360;2023-07-22T04:48:14;14.60;99.90
20125;DHT22;10223;50.862;4.360;2023-07-22T04:50:43;14.70;99.90
20125;DHT22;10223;50.862;4.360;2023-07-22T04:53:11;14.80;99.90
20125;DHT22;10223;50.862;4.360;2023-07-22T04:55:39;15.00;99.90
20125;DHT22;10223;50.862;4.360;2023-07-22T04:58:06;14.80;99.90
20125;DHT22;10223;50.862;4.360;2023-07-22T05:00:33;14.70;99.90
20125;DHT22;10223;50.862;4.360;2023-07-22T05:03:01;14.70;99.90
20125;DHT22;10223;50.862;4.360;2023-07-22T05:05:28;14.60;99.90
20125;DHT22;10223;50.862;4.360;2023-07-22T05:07:56;14.60;99.90
20125;DHT22;10223;50.862;4.360;2023-07-22T05:10:23;14.60;99.90
20125;DHT22;10223;50.862;4.360;2023-07-22T05:12:50;14.70;99.90
20125;DHT22;10223;50.862;4.360;2023-07-22T05:15:17;14.70;99.90
20125;DHT22;10223;50.862;4.360;2023-07-22T05:17:44;14.70;99.90
20125;DHT22;10223;50.862;4.360;2023-07-22T05:20:11;14.70;99.90
20125;DHT22;10223;50.862;4.360;2023-07-22T05:22:38;14.60;99.90
20125;DHT22;10223;50.862;4.360;2023-07-22T05:25:08;14.70;99.90
20125;DHT22;10223;50.862;4.360;2023-07-22T05:27:35;14.60;99.90
20125;DHT22;10223;50.862;4.360;2023-07-22T05:30:03;14.60;99.90
20125;DHT22;10223;50.862;4.360;2023-07-22T05:32:30;14.60;99.90
20125;DHT22;10223;50.862;4.360;2023-07-22T05:34:56;14.70;99.90
20125;DHT22;10223;50.862;4.360;2023-07-22T05:37:23;14.60;99.90
20125;DHT22;10223;50.862;4.360;2023-07-22T05:39:50;14.60;99.90
20125;DHT22;10223;50.862;4.360;2023-07-22T05:42:18;14.60;99.90
20125;DHT22;10223;50.862;4.360;2023-07-22T05:44:45;14.70;99.90
20125;DHT22;10223;50.862;4.360;2023-07-22T05:47:12;14.80;99.90
20125;DHT22;10223;50.862;4.360;2023-07-22T05:49:39;14.80;99.90
20125;DHT22;10223;50.862;4.360;2023-07-22T05:52:06;14.80;99.90
20125;DHT22;10223;50.862;4.360;2023-07-22T05:54:33;14.70;99.90
20125;DHT22;10223;50.862;4.360;2023-07-22T05:57:00;14.80;99.90
20125;DHT22;10223;50.862;4.360;2023-07-22T05:59:30;14.80;99.90
20125;DHT22;10223;50.862;4.360;2023-07-22T06:01:57;15.00;99.90
20125;DHT22;10223;50.862;4.360;2023-07-22T06:04:24;15.20;99.90
20125;DHT22;10223;50.862;4.360;2023-07-22T06:06:51;15.20;99.90
20125;DHT22;10223;50.862;4.360;2023-07-22T06:09:18;15.30;99.90
20125;DHT22;10223;50.862;4.360;2023-07-22T06:11:45;15.40;99.90
20125;DHT22;10223;50.862;4.360;2023-07-22T06:14:12;15.30;99.90
20125;DHT22;10223;50.862;4.360;2023-07-22T06:16:40;15.30;99.90
20125;DHT22;10223;50.862;4.360;2023-07-22T06:19:07;15.40;99.90
20125;DHT22;10223;50.862;4.360;2023-07-22T06:21:34;15.50;99.90
20125;DHT22;10223;50.862;4.360;2023-07-22T06:24:01;15.70;99.90
20125;DHT22;10223;50.862;4.360;2023-07-22T06:26:28;15.70;99.90
20125;DHT22;10223;50.862;4.360;2023-07-22T06:28:54;15.50;99.90
20125;DHT22;10223;50.862;4.360;2023-07-22T06:31:22;15.50;99.90
20125;DHT22;10223;50.862;4.360;2023-07-22T06:33:50;15.40;99.90
20125;DHT22;10223;50.862;4.360;2023-07-22T06:36:17;15.70;99.90
20125;DHT22;10223;50.862;4.360;2023-07-22T06:38:44;15.70;99.90
20125;DHT22;10223;50.862;4.360;2023-07-22T06:41:11;15.70;99.90
20125;DHT22;10223;50.862;4.360;2023-07-22T06:43:37;15.70;99.90
20125;DHT22;10223;50.862;4.360;2023-07-22T06:46:05;15.70;99.90
20125;DHT22;10223;50.862;4.360;2023-07-22T06:48:32;15.50;99.90
20125;DHT22;10223;50.862;4.360;2023-07-22T06:51:00;15.60;99.90
20125;DHT22;10223;50.862;4.360;2023-07-22T06:53:27;15.70;99.90
20125;DHT22;10223;50.862;4.360;2023-07-22T06:55:54;15.50;99.90
20125;DHT22;10223;50.862;4.360;2023-07-22T06:58:21;15.40;99.90
20125;DHT22;10223;50.862;4.360;2023-07-22T07:00:52;15.30;99.90
20125;DHT22;10223;50.862;4.360;2023-07-22T07:03:19;15.40;99.90
20125;DHT22;10223;50.862;4.360;2023-07-22T07:05:52;15.50;99.90
20125;DHT22;10223;50.862;4.360;2023-07-22T07:08:20;15.50;99.90
20125;DHT22;10223;50.862;4.360;2023-07-22T07:10:47;15.50;99.90
20125;DHT22;10223;50.862;4.360;2023-07-22T07:13:13;15.50;99.90
20125;DHT22;10223;50.862;4.360;2023-07-22T07:15:40;15.50;99.90
20125;DHT22;10223;50.862;4.360;2023-07-22T07:18:07;15.70;99.90
20125;DHT22;10223;50.862;4.360;2023-07-22T07:20:34;15.70;99.90
20125;DHT22;10223;50.862;4.360;2023-07-22T07:23:01;15.90;99.90
20125;DHT22;10223;50.862;4.360;2023-07-22T07:25:29;16.00;99.90
20125;DHT22;10223;50.862;4.360;2023-07-22T07:27:56;16.10;99.90
20125;DHT22;10223;50.862;4.360;2023-07-22T07:30:22;16.40;99.90
20125;DHT22;10223;50.862;4.360;2023-07-22T07:32:49;16.40;99.90
20125;DHT22;10223;50.862;4.360;2023-07-22T07:35:16;16.40;99.90
20125;DHT22;10223;50.862;4.360;2023-07-22T07:37:43;16.40;99.90
20125;DHT22;10223;50.862;4.360;2023-07-22T07:40:11;16.40;99.90
20125;DHT22;10223;50.862;4.360;2023-07-22T07:42:39;16.40;99.90
20125;DHT22;10223;50.862;4.360;2023-07-22T07:45:07;16.60;99.90
20125;DHT22;10223;50.862;4.360;2023-07-22T07:47:34;16.70;99.90
20125;DHT22;10223;50.862;4.360;2023-07-22T07:50:01;16.90;99.90
20125;DHT22;10223;50.862;4.360;2023-07-22T07:52:28;17.00;99.90
20125;DHT22;10223;50.862;4.360;2023-07-22T07:54:55;17.10;99.90
20125;DHT22;10223;50.862;4.360;2023-07-22T07:57:22;16.80;99.90
20125;DHT22;10223;50.862;4.360;2023-07-22T07:59:50;16.90;99.90
20125;DHT22;10223;50.862;4.360;2023-07-22T08:02:17;17.00;99.90
20125;DHT22;10223;50.862;4.360;2023-07-22T08:04:43;17.00;99.90
20125;DHT22;10223;50.862;4.360;2023-07-22T08:07:10;17.10;99.90
20125;DHT22;10223;50.862;4.360;2023-07-22T08:09:41;17.20;99.90
20125;DHT22;10223;50.862;4.360;2023-07-22T08:12:09;17.40;99.90
20125;DHT22;10223;50.862;4.360;2023-07-22T08:14:36;17.20;99.90
20125;DHT22;10223;50.862;4.360;2023-07-22T08:17:04;17.10;99.90
20125;DHT22;10223;50.862;4.360;2023-07-22T08:19:31;17.10;99.90
20125;DHT22;10223;50.862;4.360;2023-07-22T08:21:57;17.30;99.90
20125;DHT22;10223;50.862;4.360;2023-07-22T08:24:24;17.40;99.90
20125;DHT22;10223;50.862;4.360;2023-07-22T08:26:51;17.40;99.90
20125;DHT22;10223;50.862;4.360;2023-07-22T08:29:18;17.60;99.90
20125;DHT22;10223;50.862;4.360;2023-07-22T08:31:45;17.60;99.90
20125;DHT22;10223;50.862;4.360;2023-07-22T08:34:13;17.60;99.90
20125;DHT22;10223;50.862;4.360;2023-07-22T08:36:41;17.60;99.90
20125;DHT22;10223;50.862;4.360;2023-07-22T08:39:07;17.50;99.90
20125;DHT22;10223;50.862;4.360;2023-07-22T08:41:35;17.70;99.90
20125;DHT22;10223;50.862;4.360;2023-07-22T08:44:04;17.80;99.90
20125;DHT22;10223;50.862;4.360;2023-07-22T08:46:33;17.90;99.90
20125;DHT22;10223;50.862;4.360;2023-07-22T08:49:00;18.00;99.90
20125;DHT22;10223;50.862;4.360;2023-07-22T08:51:29;18.10;99.90
20125;DHT22;10223;50.862;4.360;2023-07-22T08:53:58;18.00;99.90
20125;DHT22;10223;50.862;4.360;2023-07-22T08:56:25;18.00;99.90
20125;DHT22;10223;50.862;4.360;2023-07-22T08:58:52;17.80;99.90
20125;DHT22;10223;50.862;4.360;2023-07-22T09:01:20;18.00;99.90
20125;DHT22;10223;50.862;4.360;2023-07-22T09:03:48;17.90;99.90
20125;DHT22;10223;50.862;4.360;2023-07-22T09:06:17;18.30;99.90
20125;DHT22;10223;50.862;4.360;2023-07-22T09:08:45;18.50;99.90
20125;DHT22;10223;50.862;4.360;2023-07-22T09:11:12;18.70;99.90
20125;DHT22;10223;50.862;4.360;2023-07-22T09:13:41;19.00;99.90
20125;DHT22;10223;50.862;4.360;2023-07-22T09:16:11;19.10;99.90
20125;DHT22;10223;50.862;4.360;2023-07-22T09:18:39;19.20;99.90
20125;DHT22;10223;50.862;4.360;2023-07-22T09:21:05;19.40;99.90
20125;DHT22;10223;50.862;4.360;2023-07-22T09:23:33;19.80;99.90
20125;DHT22;10223;50.862;4.360;2023-07-22T09:26:12;20.20;99.90
20125;DHT22;10223;50.862;4.360;2023-07-22T09:28:52;20.10;99.90
20125;DHT22;10223;50.862;4.360;2023-07-22T09:31:20;19.80;99.90
20125;DHT22;10223;50.862;4.360;2023-07-22T09:33:47;19.90;99.90
20125;DHT22;10223;50.862;4.360;2023-07-22T09:36:14;20.00;99.90
20125;DHT22;10223;50.862;4.360;2023-07-22T09:38:41;20.00;99.90
20125;DHT22;10223;50.862;4.360;2023-07-22T09:41:08;20.10;99.90
20125;DHT22;10223;50.862;4.360;2023-07-22T09:43:39;20.00;99.90
20125;DHT22;10223;50.862;4.360;2023-07-22T09:46:08;20.10;99.90
20125;DHT22;10223;50.862;4.360;2023-07-22T09:48:42;20.50;99.90
20125;DHT22;10223;50.862;4.360;2023-07-22T09:51:13;20.60;99.90
20125;DHT22;10223;50.862;4.360;2023-07-22T09:53:46;20.50;99.90
20125;DHT22;10223;50.862;4.360;2023-07-22T09:56:13;20.30;99.90
20125;DHT22;10223;50.862;4.360;2023-07-22T09:58:42;20.30;99.90
20125;DHT22;10223;50.862;4.360;2023-07-22T10:01:12;20.00;99.90
20125;DHT22;10223;50.862;4.360;2023-07-22T10:03:43;20.50;99.90
20125;DHT22;10223;50.862;4.360;2023-07-22T10:06:12;20.80;99.90
20125;DHT22;10223;50.862;4.360;2023-07-22T10:08:41;20.90;99.90
20125;DHT22;10223;50.862;4.360;2023-07-22T10:11:11;20.80;99.90
20125;DHT22;10223;50.862;4.360;2023-07-22T10:13:39;21.00;99.90
20125;DHT22;10223;50.862;4.360;2023-07-22T10:16:08;21.30;99.90
20125;DHT22;10223;50.862;4.360;2023-07-22T10:18:35;21.30;99.90
20125;DHT22;10223;50.862;4.360;2023-07-22T10:21:03;21.30;99.90
20125;DHT22;10223;50.862;4.360;2023-07-22T10:23:31;21.30;99.90
20125;DHT22;10223;50.862;4.360;2023-07-22T10:25:59;21.30;99.90
20125;DHT22;10223;50.862;4.360;2023-07-22T10:28:26;21.40;99.90
20125;DHT22;10223;50.862;4.360;2023-07-22T10:30:54;21.00;99.90
20125;DHT22;10223;50.862;4.360;2023-07-22T10:33:24;20.70;99.90
20125;DHT22;10223;50.862;4.360;2023-07-22T10:36:05;20.50;99.90
20125;DHT22;10223;50.862;4.360;2023-07-22T10:38:32;20.90;99.90
20125;DHT22;10223;50.862;4.360;2023-07-22T10:41:00;21.30;99.90
20125;DHT22;10223;50.862;4.360;2023-07-22T10:43:31;21.30;99.90
20125;DHT22;10223;50.862;4.360;2023-07-22T10:46:05;21.30;99.90
20125;DHT22;10223;50.862;4.360;2023-07-22T10:48:36;21.80;99.90
20125;DHT22;10223;50.862;4.360;2023-07-22T10:51:06;21.70;99.90
20125;DHT22;10223;50.862;4.360;2023-07-22T10:53:40;21.60;99.90
20125;DHT22;10223;50.862;4.360;2023-07-22T10:56:14;21.80;99.90
20125;DHT22;10223;50.862;4.360;2023-07-22T10:58:59;21.90;99.90
20125;DHT22;10223;50.862;4.360;2023-07-22T11:01:34;21.70;99.90
20125;DHT22;10223;50.862;4.360;2023-07-22T11:04:11;21.70;99.90
20125;DHT22;10223;50.862;4.360;2023-07-22T11:06:39;21.40;99.90
20125;DHT22;10223;50.862;4.360;2023-07-22T11:09:07;21.60;99.90
20125;DHT22;10223;50.862;4.360;2023-07-22T11:11:35;21.80;99.90
20125;DHT22;10223;50.862;4.360;2023-07-22T11:14:16;21.60;99.90
20125;DHT22;10223;50.862;4.360;2023-07-22T11:16:45;21.50;99.90
20125;DHT22;10223;50.862;4.360;2023-07-22T11:19:15;21.40;99.90
20125;DHT22;10223;50.862;4.360;2023-07-22T11:21:42;21.60;99.90
20125;DHT22;10223;50.862;4.360;2023-07-22T11:24:09;21.60;99.90
20125;DHT22;10223;50.862;4.360;2023-07-22T11:26:35;21.40;99.90
20125;DHT22;10223;50.862;4.360;2023-07-22T11:29:04;21.50;99.90
20125;DHT22;10223;50.862;4.360;2023-07-22T11:31:32;21.80;99.90
20125;DHT22;10223;50.862;4.360;2023-07-22T11:33:59;21.90;99.90
20125;DHT22;10223;50.862;4.360;2023-07-22T11:36:27;21.60;99.90
20125;DHT22;10223;50.862;4.360;2023-07-22T11:39:01;21.40;99.90
20125;DHT22;10223;50.862;4.360;2023-07-22T11:41:29;21.30;99.90
20125;DHT22;10223;50.862;4.360;2023-07-22T11:43:57;21.40;99.90
20125;DHT22;10223;50.862;4.360;2023-07-22T11:46:24;21.50;99.90
20125;DHT22;10223;50.862;4.360;2023-07-22T11:48:52;21.90;99.90
20125;DHT22;10223;50.862;4.360;2023-07-22T11:51:20;22.00;99.90
20125;DHT22;10223;50.862;4.360;2023-07-22T11:53:49;21.70;99.90
20125;DHT22;10223;50.862;4.360;2023-07-22T11:56:20;22.00;99.90
20125;DHT22;10223;50.862;4.360;2023-07-22T11:58:51;22.40;99.90
20125;DHT22;10223;50.862;4.360;2023-07-22T12:01:19;22.50;99.90
20125;DHT22;10223;50.862;4.360;2023-07-22T12:03:46;22.50;99.90
20125;DHT22;10223;50.862;4.360;2023-07-22T12:06:13;22.70;99.90
20125;DHT22;10223;50.862;4.360;2023-07-22T12:08:45;22.80;99.90
20125;DHT22;10223;50.862;4.360;2023-07-22T12:11:22;22.50;99.90
20125;DHT22;10223;50.862;4.360;2023-07-22T12:14:07;22.40;99.90
20125;DHT22;10223;50.862;4.360;2023-07-22T12:16:35;22.10;99.90
20125;DHT22;10223;50.862;4.360;2023-07-22T12:19:02;22.30;99.90
20125;DHT22;10223;50.862;4.360;2023-07-22T12:21:29;22.30;99.90
20125;DHT22;10223;50.862;4.360;2023-07-22T12:23:57;21.90;99.90
20125;DHT22;10223;50.862;4.360;2023-07-22T12:26:26;21.90;99.90
20125;DHT22;10223;50.862;4.360;2023-07-22T12:28:52;21.90;99.90
20125;DHT22;10223;50.862;4.360;2023-07-22T12:31:19;22.20;99.90
20125;DHT22;10223;50.862;4.360;2023-07-22T12:33:46;22.00;99.90
20125;DHT22;10223;50.862;4.360;2023-07-22T12:36:13;21.90;99.90
20125;DHT22;10223;50.862;4.360;2023-07-22T12:38:40;22.20;99.90
20125;DHT22;10223;50.862;4.360;2023-07-22T12:41:07;22.50;99.90
20125;DHT22;10223;50.862;4.360;2023-07-22T12:43:36;22.60;99.90
20125;DHT22;10223;50.862;4.360;2023-07-22T12:46:02;22.80;99.90
20125;DHT22;10223;50.862;4.360;2023-07-22T12:48:29;22.90;99.90
20125;DHT22;10223;50.862;4.360;2023-07-22T12:50:56;22.90;99.90
20125;DHT22;10223;50.862;4.360;2023-07-22T12:53:24;23.00;99.90
20125;DHT22;10223;50.862;4.360;2023-07-22T12:55:51;23.30;99.90
20125;DHT22;10223;50.862;4.360;2023-07-22T12:58:18;23.20;99.90
20125;DHT22;10223;50.862;4.360;2023-07-22T13:00:46;23.00;99.90
20125;DHT22;10223;50.862;4.360;2023-07-22T13:03:13;22.70;99.90
20125;DHT22;10223;50.862;4.360;2023-07-22T13:05:40;22.70;99.90
20125;DHT22;10223;50.862;4.360;2023-07-22T13:08:06;22.70;99.90
20125;DHT22;10223;50.862;4.360;2023-07-22T13:10:33;22.60;99.90
20125;DHT22;10223;50.862;4.360;2023-07-22T13:13:03;22.20;99.90
20125;DHT22;10223;50.862;4.360;2023-07-22T13:15:29;22.00;99.90
20125;DHT22;10223;50.862;4.360;2023-07-22T13:17:58;21.80;99.90
20125;DHT22;10223;50.862;4.360;2023-07-22T13:20:24;21.60;99.90
20125;DHT22;10223;50.862;4.360;2023-07-22T13:22:51;21.60;99.90
20125;DHT22;10223;50.862;4.360;2023-07-22T13:25:18;21.70;99.90
20125;DHT22;10223;50.862;4.360;2023-07-22T13:27:45;21.90;99.90
20125;DHT22;10223;50.862;4.360;2023-07-22T13:30:12;22.10;99.90
20125;DHT22;10223;50.862;4.360;2023-07-22T13:32:38;22.40;99.90
20125;DHT22;10223;50.862;4.360;2023-07-22T13:35:07;22.60;99.90
20125;DHT22;10223;50.862;4.360;2023-07-22T13:37:35;22.50;99.90
20125;DHT22;10223;50.862;4.360;2023-07-22T13:40:03;22.30;99.90
20125;DHT22;10223;50.862;4.360;2023-07-22T13:42:35;22.10;99.90
20125;DHT22;10223;50.862;4.360;2023-07-22T13:45:02;22.00;99.90
20125;DHT22;10223;50.862;4.360;2023-07-22T13:47:29;22.00;99.90
20125;DHT22;10223;50.862;4.360;2023-07-22T13:49:56;22.00;99.90
20125;DHT22;10223;50.862;4.360;2023-07-22T13:52:25;22.00;99.90
20125;DHT22;10223;50.862;4.360;2023-07-22T13:54:52;21.90;99.90
20125;DHT22;10223;50.862;4.360;2023-07-22T13:57:19;21.60;99.90
20125;DHT22;10223;50.862;4.360;2023-07-22T13:59:45;21.50;99.90
20125;DHT22;10223;50.862;4.360;2023-07-22T14:02:12;21.40;99.90
20125;DHT22;10223;50.862;4.360;2023-07-22T14:04:39;21.30;99.90
20125;DHT22;10223;50.862;4.360;2023-07-22T14:07:06;21.20;99.90
20125;DHT22;10223;50.862;4.360;2023-07-22T14:09:34;21.20;99.90
20125;DHT22;10223;50.862;4.360;2023-07-22T14:12:02;21.20;99.90
20125;DHT22;10223;50.862;4.360;2023-07-22T14:14:28;21.10;99.90
20125;DHT22;10223;50.862;4.360;2023-07-22T14:16:56;21.00;99.90
20125;DHT22;10223;50.862;4.360;2023-07-22T14:19:23;21.00;99.90
20125;DHT22;10223;50.862;4.360;2023-07-22T14:21:50;20.90;99.90
20125;DHT22;10223;50.862;4.360;2023-07-22T14:24:17;20.90;99.90
20125;DHT22;10223;50.862;4.360;2023-07-22T14:26:45;20.80;99.90
20125;DHT22;10223;50.862;4.360;2023-07-22T14:29:13;20.90;99.90
20125;DHT22;10223;50.862;4.360;2023-07-22T14:31:42;20.80;99.90
20125;DHT22;10223;50.862;4.360;2023-07-22T14:34:09;20.90;99.90
20125;DHT22;10223;50.862;4.360;2023-07-22T14:36:36;21.00;99.90
20125;DHT22;10223;50.862;4.360;2023-07-22T14:39:03;21.10;99.90
20125;DHT22;10223;50.862;4.360;2023-07-22T14:41:30;21.20;99.90
20125;DHT22;10223;50.862;4.360;2023-07-22T14:43:58;21.50;99.90
20125;DHT22;10223;50.862;4.360;2023-07-22T14:46:25;21.40;99.90
20125;DHT22;10223;50.862;4.360;2023-07-22T14:48:52;21.50;99.90
20125;DHT22;10223;50.862;4.360;2023-07-22T14:51:19;21.30;99.90
20125;DHT22;10223;50.862;4.360;2023-07-22T14:53:46;21.40;99.90
20125;DHT22;10223;50.862;4.360;2023-07-22T14:56:15;21.70;99.90
20125;DHT22;10223;50.862;4.360;2023-07-22T14:58:42;21.80;99.90
20125;DHT22;10223;50.862;4.360;2023-07-22T15:01:11;22.40;99.90
20125;DHT22;10223;50.862;4.360;2023-07-22T15:03:38;23.00;99.90
20125;DHT22;10223;50.862;4.360;2023-07-22T15:06:05;23.00;99.90
20125;DHT22;10223;50.862;4.360;2023-07-22T15:08:32;22.90;99.90
20125;DHT22;10223;50.862;4.360;2023-07-22T15:10:59;23.20;99.90
20125;DHT22;10223;50.862;4.360;2023-07-22T15:13:26;23.50;99.90
20125;DHT22;10223;50.862;4.360;2023-07-22T15:15:53;23.60;99.90
20125;DHT22;10223;50.862;4.360;2023-07-22T15:18:22;23.40;99.90
20125;DHT22;10223;50.862;4.360;2023-07-22T15:20:50;23.10;99.90
20125;DHT22;10223;50.862;4.360;2023-07-22T15:23:17;23.20;99.90
20125;DHT22;10223;50.862;4.360;2023-07-22T15:25:43;22.80;99.90
20125;DHT22;10223;50.862;4.360;2023-07-22T15:28:10;22.50;99.90
20125;DHT22;10223;50.862;4.360;2023-07-22T15:30:37;22.20;99.90
20125;DHT22;10223;50.862;4.360;2023-07-22T15:33:05;22.10;99.90